sensor_id;sensor_type;location;lat;lon;timestamp;P1;durP1;ratioP1;P2;durP2;ratioP2
5833;SDS011;2943;48.012;10.968;2023-06-05T00:01:53;9.60;;;5.53;;
5833;SDS011;2943;48.012;10.968;2023-06-05T00:04:20;8.10;;;5.53;;
5833;SDS011;2943;48.012;10.968;2023-06-05T00:06:49;8.17;;;5.30;;
5833;SDS011;2943;48.012;10.968;2023-06-05T00:09:16;8.33;;;5.83;;
5833;SDS011;2943;48.012;10.968;2023-06-05T00:11:43;13.33;;;5.70;;
5833;SDS011;2943;48.012;10.968;2023-06-05T00:14:10;5.77;;;5.27;;
5833;SDS011;2943;48.012;10.968;2023-06-05T00:16:37;6.03;;;4.87;;
5833;SDS011;2943;48.012;10.968;2023-06-05T00:19:04;8.50;;;5.70;;
5833;SDS011;2943;48.012;10.968;2023-06-05T00:21:30;9.80;;;5.90;;
5833;SDS011;2943;48.012;10.968;2023-06-05T00:23:58;6.93;;;5.40;;
5833;SDS011;2943;48.012;10.968;2023-06-05T00:26:25;6.40;;;5.23;;
5833;SDS011;2943;48.012;10.968;2023-06-05T00:28:52;7.60;;;5.70;;
5833;SDS011;2943;48.012;10.968;2023-06-05T00:31:18;9.27;;;5.10;;
5833;SDS011;2943;48.012;10.968;2023-06-05T00:33:46;7.57;;;5.30;;
5833;SDS011;2943;48.012;10.968;2023-06-05T00:36:13;14.90;;;6.13;;
5833;SDS011;2943;48.012;10.968;2023-06-05T00:38:40;7.63;;;5.63;;
5833;SDS011;2943;48.012;10.968;2023-06-05T00:41:08;5.90;;;5.10;;
5833;SDS011;2943;48.012;10.968;2023-06-05T00:43:34;10.07;;;6.13;;
5833;SDS011;2943;48.012;10.968;2023-06-05T00:46:03;7.40;;;5.70;;
5833;SDS011;2943;48.012;10.968;2023-06-05T00:48:30;8.37;;;5.50;;
5833;SDS011;2943;48.012;10.968;2023-06-05T00:50:58;10.20;;;5.73;;
5833;SDS011;2943;48.012;10.968;2023-06-05T00:53:25;8.50;;;6.07;;
5833;SDS011;2943;48.012;10.968;2023-06-05T00:55:52;6.53;;;5.60;;
5833;SDS011;2943;48.012;10.968;2023-06-05T00:58:21;13.50;;;6.00;;
5833;SDS011;2943;48.012;10.968;2023-06-05T01:00:48;9.30;;;5.50;;
5833;SDS011;2943;48.012;10.968;2023-06-05T01:03:16;6.70;;;5.23;;
5833;SDS011;2943;48.012;10.968;2023-06-05T01:05:44;9.93;;;5.80;;
5833;SDS011;2943;48.012;10.968;2023-06-05T01:08:13;10.43;;;6.03;;
5833;SDS011;2943;48.012;10.968;2023-06-05T01:10:41;10.30;;;5.77;;
5833;SDS011;2943;48.012;10.968;2023-06-05T01:13:10;7.00;;;6.30;;
5833;SDS011;2943;48.012;10.968;2023-06-05T01:15:46;9.40;;;6.00;;
5833;SDS011;2943;48.012;10.968;2023-06-05T01:18:13;8.70;;;6.00;;
5833;SDS011;2943;48.012;10.968;2023-06-05T01:20:43;10.53;;;6.47;;
5833;SDS011;2943;48.012;10.968;2023-06-05T01:23:11;6.30;;;5.40;;
5833;SDS011;2943;48.012;10.968;2023-06-05T01:25:38;8.03;;;5.70;;
5833;SDS011;2943;48.012;10.968;2023-06-05T01:28:06;8.97;;;6.17;;
5833;SDS011;2943;48.012;10.968;2023-06-05T01:30:39;7.93;;;6.30;;
5833;SDS011;2943;48.012;10.968;2023-06-05T01:33:13;8.73;;;6.60;;
5833;SDS011;2943;48.012;10.968;2023-06-05T01:35:46;7.43;;;6.20;;
5833;SDS011;2943;48.012;10.968;2023-06-05T01:38:17;9.77;;;6.73;;
5833;SDS011;2943;48.012;10.968;2023-06-05T01:40:45;8.50;;;6.10;;
5833;SDS011;2943;48.012;10.968;2023-06-05T01:43:14;12.10;;;5.53;;
5833;SDS011;2943;48.012;10.968;2023-06-05T01:45:42;9.97;;;6.80;;
5833;SDS011;2943;48.012;10.968;2023-06-05T01:48:10;7.90;;;5.97;;
5833;SDS011;2943;48.012;10.968;2023-06-05T01:50:36;8.57;;;5.87;;
5833;SDS011;2943;48.012;10.968;2023-06-05T01:53:04;7.93;;;6.17;;
5833;SDS011;2943;48.012;10.968;2023-06-05T01:55:33;8.00;;;5.97;;
5833;SDS011;2943;48.012;10.968;2023-06-05T01:58:04;7.77;;;5.97;;
5833;SDS011;2943;48.012;10.968;2023-06-05T02:00:30;9.60;;;6.60;;
5833;SDS011;2943;48.012;10.968;2023-06-05T02:03:00;12.97;;;6.20;;
5833;SDS011;2943;48.012;10.968;2023-06-05T02:05:27;8.50;;;5.70;;
5833;SDS011;2943;48.012;10.968;2023-06-05T02:07:54;7.87;;;6.63;;
5833;SDS011;2943;48.012;10.968;2023-06-05T02:10:23;8.07;;;6.30;;
5833;SDS011;2943;48.012;10.968;2023-06-05T02:12:51;7.57;;;5.93;;
5833;SDS011;2943;48.012;10.968;2023-06-05T02:15:18;8.00;;;6.30;;
5833;SDS011;2943;48.012;10.968;2023-06-05T02:17:45;6.57;;;5.53;;
5833;SDS011;2943;48.012;10.968;2023-06-05T02:20:15;11.20;;;6.90;;
5833;SDS011;2943;48.012;10.968;2023-06-05T02:22:43;9.33;;;6.50;;
5833;SDS011;2943;48.012;10.968;2023-06-05T02:25:10;11.90;;;6.97;;
5833;SDS011;2943;48.012;10.968;2023-06-05T02:27:37;7.27;;;6.17;;
5833;SDS011;2943;48.012;10.968;2023-06-05T02:30:06;7.13;;;5.77;;
5833;SDS011;2943;48.012;10.968;2023-06-05T02:32:34;8.53;;;6.10;;
5833;SDS011;2943;48.012;10.968;2023-06-05T02:35:01;10.60;;;7.07;;
5833;SDS011;2943;48.012;10.968;2023-06-05T02:37:29;9.10;;;6.43;;
5833;SDS011;2943;48.012;10.968;2023-06-05T02:40:02;9.30;;;6.70;;
5833;SDS011;2943;48.012;10.968;2023-06-05T02:42:30;8.57;;;6.30;;
5833;SDS011;2943;48.012;10.968;2023-06-05T02:44:56;8.20;;;6.30;;
5833;SDS011;2943;48.012;10.968;2023-06-05T02:47:24;13.03;;;6.47;;
5833;SDS011;2943;48.012;10.968;2023-06-05T02:49:51;8.20;;;5.93;;
5833;SDS011;2943;48.012;10.968;2023-06-05T02:52:18;8.57;;;6.87;;
5833;SDS011;2943;48.012;10.968;2023-06-05T02:54:45;7.93;;;6.87;;
5833;SDS011;2943;48.012;10.968;2023-06-05T02:57:12;15.03;;;6.23;;
5833;SDS011;2943;48.012;10.968;2023-06-05T02:59:40;8.90;;;7.00;;
5833;SDS011;2943;48.012;10.968;2023-06-05T03:02:07;8.10;;;6.77;;
5833;SDS011;2943;48.012;10.968;2023-06-05T03:04:35;9.00;;;6.80;;
5833;SDS011;2943;48.012;10.968;2023-06-05T03:07:05;9.23;;;7.77;;
5833;SDS011;2943;48.012;10.968;2023-06-05T03:09:34;10.50;;;7.37;;
5833;SDS011;2943;48.012;10.968;2023-06-05T03:12:01;10.00;;;7.40;;
5833;SDS011;2943;48.012;10.968;2023-06-05T03:14:28;8.63;;;7.10;;
5833;SDS011;2943;48.012;10.968;2023-06-05T03:16:55;12.07;;;7.20;;
5833;SDS011;2943;48.012;10.968;2023-06-05T03:19:24;9.13;;;7.10;;
5833;SDS011;2943;48.012;10.968;2023-06-05T03:21:52;11.67;;;7.67;;
5833;SDS011;2943;48.012;10.968;2023-06-05T03:24:19;11.57;;;7.90;;
5833;SDS011;2943;48.012;10.968;2023-06-05T03:26:49;8.43;;;7.27;;
5833;SDS011;2943;48.012;10.968;2023-06-05T03:29:16;11.10;;;7.70;;
5833;SDS011;2943;48.012;10.968;2023-06-05T03:31:43;10.83;;;8.07;;
5833;SDS011;2943;48.012;10.968;2023-06-05T03:34:10;9.43;;;7.50;;
5833;SDS011;2943;48.012;10.968;2023-06-05T03:36:36;10.40;;;8.10;;
5833;SDS011;2943;48.012;10.968;2023-06-05T03:39:06;9.77;;;7.97;;
5833;SDS011;2943;48.012;10.968;2023-06-05T03:41:32;12.40;;;7.83;;
5833;SDS011;2943;48.012;10.968;2023-06-05T03:44:00;12.40;;;8.57;;
5833;SDS011;2943;48.012;10.968;2023-06-05T03:46:28;19.73;;;8.03;;
5833;SDS011;2943;48.012;10.968;2023-06-05T03:48:55;7.27;;;6.57;;
5833;SDS011;2943;48.012;10.968;2023-06-05T03:51:25;11.53;;;6.93;;
5833;SDS011;2943;48.012;10.968;2023-06-05T03:53:54;12.10;;;7.63;;
5833;SDS011;2943;48.012;10.968;2023-06-05T03:56:24;12.70;;;7.00;;
5833;SDS011;2943;48.012;10.968;2023-06-05T03:58:54;9.80;;;7.93;;
5833;SDS011;2943;48.012;10.968;2023-06-05T04:01:20;15.33;;;8.17;;
5833;SDS011;2943;48.012;10.968;2023-06-05T04:03:47;11.90;;;8.17;;
5833;SDS011;2943;48.012;10.968;2023-06-05T04:06:14;9.80;;;8.07;;
5833;SDS011;2943;48.012;10.968;2023-06-05T04:08:41;12.20;;;8.53;;
5833;SDS011;2943;48.012;10.968;2023-06-05T04:11:07;18.53;;;9.23;;
5833;SDS011;2943;48.012;10.968;2023-06-05T04:13:35;13.30;;;8.53;;
5833;SDS011;2943;48.012;10.968;2023-06-05T04:16:02;12.40;;;8.50;;
5833;SDS011;2943;48.012;10.968;2023-06-05T04:18:29;12.70;;;9.67;;
5833;SDS011;2943;48.012;10.968;2023-06-05T04:20:55;14.00;;;9.00;;
5833;SDS011;2943;48.012;10.968;2023-06-05T04:23:22;12.90;;;10.03;;
5833;SDS011;2943;48.012;10.968;2023-06-05T04:25:49;12.13;;;8.77;;
5833;SDS011;2943;48.012;10.968;2023-06-05T04:28:18;10.97;;;9.30;;
5833;SDS011;2943;48.012;10.968;2023-06-05T04:30:48;12.60;;;9.20;;
5833;SDS011;2943;48.012;10.968;2023-06-05T04:33:15;14.30;;;9.90;;
5833;SDS011;2943;48.012;10.968;2023-06-05T04:35:41;11.27;;;9.60;;
5833;SDS011;2943;48.012;10.968;2023-06-05T04:38:08;11.70;;;9.60;;
5833;SDS011;2943;48.012;10.968;2023-06-05T04:40:35;14.03;;;10.50;;
5833;SDS011;2943;48.012;10.968;2023-06-05T04:43:01;15.83;;;10.13;;
5833;SDS011;2943;48.012;10.968;2023-06-05T04:45:28;25.13;;;10.33;;
5833;SDS011;2943;48.012;10.968;2023-06-05T04:47:56;16.67;;;10.47;;
5833;SDS011;2943;48.012;10.968;2023-06-05T04:50:23;11.67;;;9.50;;
5833;SDS011;2943;48.012;10.968;2023-06-05T04:52:51;12.10;;;9.30;;
5833;SDS011;2943;48.012;10.968;2023-06-05T04:55:19;13.83;;;9.73;;
5833;SDS011;2943;48.012;10.968;2023-06-05T04:57:46;11.33;;;9.60;;
5833;SDS011;2943;48.012;10.968;2023-06-05T05:00:13;11.03;;;9.30;;
5833;SDS011;2943;48.012;10.968;2023-06-05T05:02:40;12.70;;;10.50;;
5833;SDS011;2943;48.012;10.968;2023-06-05T05:05:08;18.13;;;11.20;;
5833;SDS011;2943;48.012;10.968;2023-06-05T05:07:38;11.50;;;9.80;;
5833;SDS011;2943;48.012;10.968;2023-06-05T05:10:07;13.87;;;10.70;;
5833;SDS011;2943;48.012;10.968;2023-06-05T05:12:34;17.03;;;10.93;;
5833;SDS011;2943;48.012;10.968;2023-06-05T05:15:01;17.37;;;10.90;;
5833;SDS011;2943;48.012;10.968;2023-06-05T05:17:28;14.67;;;11.60;;
5833;SDS011;2943;48.012;10.968;2023-06-05T05:19:56;16.90;;;12.13;;
5833;SDS011;2943;48.012;10.968;2023-06-05T05:22:24;12.80;;;11.50;;
5833;SDS011;2943;48.012;10.968;2023-06-05T05:24:52;14.03;;;11.97;;
5833;SDS011;2943;48.012;10.968;2023-06-05T05:27:18;13.10;;;11.17;;
5833;SDS011;2943;48.012;10.968;2023-06-05T05:29:45;15.67;;;10.90;;
5833;SDS011;2943;48.012;10.968;2023-06-05T05:32:12;14.37;;;11.43;;
5833;SDS011;2943;48.012;10.968;2023-06-05T05:34:38;14.33;;;11.60;;
5833;SDS011;2943;48.012;10.968;2023-06-05T05:37:05;14.43;;;12.20;;
5833;SDS011;2943;48.012;10.968;2023-06-05T05:39:33;16.30;;;12.67;;
5833;SDS011;2943;48.012;10.968;2023-06-05T05:42:00;15.80;;;11.60;;
5833;SDS011;2943;48.012;10.968;2023-06-05T05:44:27;13.87;;;11.70;;
5833;SDS011;2943;48.012;10.968;2023-06-05T05:46:54;14.77;;;11.50;;
5833;SDS011;2943;48.012;10.968;2023-06-05T05:49:20;18.20;;;12.80;;
5833;SDS011;2943;48.012;10.968;2023-06-05T05:51:47;23.57;;;13.90;;
5833;SDS011;2943;48.012;10.968;2023-06-05T05:54:15;16.13;;;11.90;;
5833;SDS011;2943;48.012;10.968;2023-06-05T05:56:43;16.77;;;11.70;;
5833;SDS011;2943;48.012;10.968;2023-06-05T05:59:12;9.35;;;7.35;;
5833;SDS011;2943;48.012;10.968;2023-06-05T06:01:39;12.27;;;9.27;;
5833;SDS011;2943;48.012;10.968;2023-06-05T06:04:06;12.27;;;10.50;;
5833;SDS011;2943;48.012;10.968;2023-06-05T06:06:32;12.37;;;10.03;;
5833;SDS011;2943;48.012;10.968;2023-06-05T06:08:59;11.23;;;10.13;;
5833;SDS011;2943;48.012;10.968;2023-06-05T06:11:27;18.40;;;9.53;;
5833;SDS011;2943;48.012;10.968;2023-06-05T06:13:55;11.07;;;9.90;;
5833;SDS011;2943;48.012;10.968;2023-06-05T06:16:22;13.90;;;9.47;;
5833;SDS011;2943;48.012;10.968;2023-06-05T06:18:48;13.13;;;10.07;;
5833;SDS011;2943;48.012;10.968;2023-06-05T06:21:15;11.80;;;9.27;;
5833;SDS011;2943;48.012;10.968;2023-06-05T06:23:42;14.50;;;9.90;;
5833;SDS011;2943;48.012;10.968;2023-06-05T06:26:10;11.20;;;9.70;;
5833;SDS011;2943;48.012;10.968;2023-06-05T06:28:39;11.77;;;9.63;;
5833;SDS011;2943;48.012;10.968;2023-06-05T06:31:07;13.77;;;10.20;;
5833;SDS011;2943;48.012;10.968;2023-06-05T06:33:34;12.00;;;10.30;;
5833;SDS011;2943;48.012;10.968;2023-06-05T06:36:01;13.03;;;11.03;;
5833;SDS011;2943;48.012;10.968;2023-06-05T06:38:28;13.80;;;11.33;;
5833;SDS011;2943;48.012;10.968;2023-06-05T06:40:57;14.60;;;10.73;;
5833;SDS011;2943;48.012;10.968;2023-06-05T06:43:23;12.00;;;10.27;;
5833;SDS011;2943;48.012;10.968;2023-06-05T06:48:20;14.60;;;11.33;;
5833;SDS011;2943;48.012;10.968;2023-06-05T06:50:46;15.60;;;12.37;;
5833;SDS011;2943;48.012;10.968;2023-06-05T06:53:13;15.13;;;11.10;;
5833;SDS011;2943;48.012;10.968;2023-06-05T06:55:40;15.30;;;11.10;;
5833;SDS011;2943;48.012;10.968;2023-06-05T06:58:07;13.27;;;11.70;;
5833;SDS011;2943;48.012;10.968;2023-06-05T07:00:34;15.40;;;10.80;;
5833;SDS011;2943;48.012;10.968;2023-06-05T07:03:00;14.43;;;11.00;;
5833;SDS011;2943;48.012;10.968;2023-06-05T07:05:29;13.00;;;11.60;;
5833;SDS011;2943;48.012;10.968;2023-06-05T07:07:56;14.53;;;11.80;;
5833;SDS011;2943;48.012;10.968;2023-06-05T07:10:25;14.90;;;12.57;;
5833;SDS011;2943;48.012;10.968;2023-06-05T07:12:53;17.53;;;10.77;;
5833;SDS011;2943;48.012;10.968;2023-06-05T07:15:20;16.23;;;11.43;;
5833;SDS011;2943;48.012;10.968;2023-06-05T07:17:46;15.00;;;11.10;;
5833;SDS011;2943;48.012;10.968;2023-06-05T07:20:13;13.23;;;10.80;;
5833;SDS011;2943;48.012;10.968;2023-06-05T07:22:43;15.53;;;12.20;;
5833;SDS011;2943;48.012;10.968;2023-06-05T07:25:10;17.70;;;10.50;;
5833;SDS011;2943;48.012;10.968;2023-06-05T07:27:39;14.47;;;11.50;;
5833;SDS011;2943;48.012;10.968;2023-06-05T07:30:06;19.40;;;11.53;;
5833;SDS011;2943;48.012;10.968;2023-06-05T07:32:34;12.70;;;11.07;;
5833;SDS011;2943;48.012;10.968;2023-06-05T07:35:00;10.90;;;9.00;;
5833;SDS011;2943;48.012;10.968;2023-06-05T07:37:27;19.80;;;11.70;;
5833;SDS011;2943;48.012;10.968;2023-06-05T07:39:55;13.30;;;10.50;;
5833;SDS011;2943;48.012;10.968;2023-06-05T07:42:22;15.53;;;9.60;;
5833;SDS011;2943;48.012;10.968;2023-06-05T07:44:49;13.47;;;10.53;;
5833;SDS011;2943;48.012;10.968;2023-06-05T07:47:16;16.03;;;10.00;;
5833;SDS011;2943;48.012;10.968;2023-06-05T07:49:43;13.50;;;10.70;;
5833;SDS011;2943;48.012;10.968;2023-06-05T07:52:10;12.80;;;9.60;;
5833;SDS011;2943;48.012;10.968;2023-06-05T07:54:36;12.83;;;9.80;;
5833;SDS011;2943;48.012;10.968;2023-06-05T07:57:05;11.30;;;9.17;;
5833;SDS011;2943;48.012;10.968;2023-06-05T07:59:33;12.80;;;10.47;;
5833;SDS011;2943;48.012;10.968;2023-06-05T08:02:00;14.60;;;10.40;;
5833;SDS011;2943;48.012;10.968;2023-06-05T08:04:26;14.90;;;10.03;;
5833;SDS011;2943;48.012;10.968;2023-06-05T08:06:53;15.37;;;10.77;;
5833;SDS011;2943;48.012;10.968;2023-06-05T08:09:20;14.50;;;9.90;;
5833;SDS011;2943;48.012;10.968;2023-06-05T08:11:47;16.43;;;9.17;;
5833;SDS011;2943;48.012;10.968;2023-06-05T08:14:15;11.67;;;10.47;;
5833;SDS011;2943;48.012;10.968;2023-06-05T08:16:42;18.67;;;11.60;;
5833;SDS011;2943;48.012;10.968;2023-06-05T08:19:09;18.13;;;10.63;;
5833;SDS011;2943;48.012;10.968;2023-06-05T08:21:36;18.10;;;10.50;;
5833;SDS011;2943;48.012;10.968;2023-06-05T08:24:03;14.57;;;11.67;;
5833;SDS011;2943;48.012;10.968;2023-06-05T08:26:30;18.57;;;10.93;;
5833;SDS011;2943;48.012;10.968;2023-06-05T08:28:57;16.90;;;10.47;;
5833;SDS011;2943;48.012;10.968;2023-06-05T08:31:24;18.23;;;11.50;;
5833;SDS011;2943;48.012;10.968;2023-06-05T08:33:51;12.07;;;9.80;;
5833;SDS011;2943;48.012;10.968;2023-06-05T08:36:18;16.37;;;11.00;;
5833;SDS011;2943;48.012;10.968;2023-06-05T08:38:46;11.70;;;10.27;;
5833;SDS011;2943;48.012;10.968;2023-06-05T08:41:13;16.40;;;9.60;;
5833;SDS011;2943;48.012;10.968;2023-06-05T08:43:41;12.70;;;9.77;;
5833;SDS011;2943;48.012;10.968;2023-06-05T08:46:09;8.05;;;6.45;;
5833;SDS011;2943;48.012;10.968;2023-06-05T08:48:42;15.95;;;9.75;;
5833;SDS011;2943;48.012;10.968;2023-06-05T08:51:10;12.00;;;8.30;;
5833;SDS011;2943;48.012;10.968;2023-06-05T08:53:38;17.23;;;8.20;;
5833;SDS011;2943;48.012;10.968;2023-06-05T08:56:06;16.90;;;9.50;;
5833;SDS011;2943;48.012;10.968;2023-06-05T08:58:33;10.43;;;8.07;;
5833;SDS011;2943;48.012;10.968;2023-06-05T09:01:01;9.37;;;8.00;;
5833;SDS011;2943;48.012;10.968;2023-06-05T09:03:27;13.00;;;9.40;;
5833;SDS011;2943;48.012;10.968;2023-06-05T09:05:55;11.53;;;8.77;;
5833;SDS011;2943;48.012;10.968;2023-06-05T09:08:28;12.00;;;8.10;;
5833;SDS011;2943;48.012;10.968;2023-06-05T09:13:45;13.73;;;8.13;;
5833;SDS011;2943;48.012;10.968;2023-06-05T09:16:12;12.43;;;8.40;;
5833;SDS011;2943;48.012;10.968;2023-06-05T09:18:43;9.17;;;7.60;;
5833;SDS011;2943;48.012;10.968;2023-06-05T09:21:19;12.53;;;8.20;;
5833;SDS011;2943;48.012;10.968;2023-06-05T09:23:45;13.43;;;8.70;;
5833;SDS011;2943;48.012;10.968;2023-06-05T09:26:12;11.90;;;8.87;;
5833;SDS011;2943;48.012;10.968;2023-06-05T09:28:46;12.73;;;7.93;;
5833;SDS011;2943;48.012;10.968;2023-06-05T09:31:19;13.43;;;7.60;;
5833;SDS011;2943;48.012;10.968;2023-06-05T09:33:54;9.90;;;7.43;;
5833;SDS011;2943;48.012;10.968;2023-06-05T09:36:23;8.83;;;7.67;;
5833;SDS011;2943;48.012;10.968;2023-06-05T09:38:52;8.67;;;6.03;;
5833;SDS011;2943;48.012;10.968;2023-06-05T09:41:19;7.40;;;6.33;;
5833;SDS011;2943;48.012;10.968;2023-06-05T09:43:46;7.23;;;6.27;;
5833;SDS011;2943;48.012;10.968;2023-06-05T09:46:14;7.20;;;6.03;;
5833;SDS011;2943;48.012;10.968;2023-06-05T09:48:43;6.70;;;6.10;;
5833;SDS011;2943;48.012;10.968;2023-06-05T09:51:18;10.50;;;5.83;;
5833;SDS011;2943;48.012;10.968;2023-06-05T09:53:48;9.50;;;6.20;;
5833;SDS011;2943;48.012;10.968;2023-06-05T09:56:17;9.40;;;6.33;;
5833;SDS011;2943;48.012;10.968;2023-06-05T09:58:46;9.03;;;5.67;;
5833;SDS011;2943;48.012;10.968;2023-06-05T10:01:14;7.80;;;6.23;;
5833;SDS011;2943;48.012;10.968;2023-06-05T10:03:44;10.77;;;6.30;;
5833;SDS011;2943;48.012;10.968;2023-06-05T10:06:14;9.63;;;5.90;;
5833;SDS011;2943;48.012;10.968;2023-06-05T10:08:49;8.37;;;6.00;;
5833;SDS011;2943;48.012;10.968;2023-06-05T10:11:17;8.53;;;5.87;;
5833;SDS011;2943;48.012;10.968;2023-06-05T10:13:46;11.60;;;6.00;;
5833;SDS011;2943;48.012;10.968;2023-06-05T10:16:14;11.00;;;5.77;;
5833;SDS011;2943;48.012;10.968;2023-06-05T10:18:42;10.67;;;5.93;;
5833;SDS011;2943;48.012;10.968;2023-06-05T10:21:11;7.70;;;5.33;;
5833;SDS011;2943;48.012;10.968;2023-06-05T10:23:39;13.10;;;5.80;;
5833;SDS011;2943;48.012;10.968;2023-06-05T10:26:15;11.20;;;6.50;;
5833;SDS011;2943;48.012;10.968;2023-06-05T10:28:56;7.57;;;5.47;;
5833;SDS011;2943;48.012;10.968;2023-06-05T10:31:37;7.95;;;5.47;;
5833;SDS011;2943;48.012;10.968;2023-06-05T10:34:18;11.17;;;6.00;;
5833;SDS011;2943;48.012;10.968;2023-06-05T10:37:15;8.30;;;5.93;;
5833;SDS011;2943;48.012;10.968;2023-06-05T10:39:55;13.03;;;5.90;;
5833;SDS011;2943;48.012;10.968;2023-06-05T10:42:24;7.90;;;6.60;;
5833;SDS011;2943;48.012;10.968;2023-06-05T10:44:51;9.50;;;6.40;;
5833;SDS011;2943;48.012;10.968;2023-06-05T10:50:23;8.50;;;6.47;;
5833;SDS011;2943;48.012;10.968;2023-06-05T10:52:56;7.20;;;5.60;;
5833;SDS011;2943;48.012;10.968;2023-06-05T10:55:24;9.83;;;5.97;;
5833;SDS011;2943;48.012;10.968;2023-06-05T10:58:09;6.63;;;5.33;;
5833;SDS011;2943;48.012;10.968;2023-06-05T11:00:39;9.50;;;5.63;;
5833;SDS011;2943;48.012;10.968;2023-06-05T11:03:52;11.70;;;5.37;;
5833;SDS011;2943;48.012;10.968;2023-06-05T11:06:21;6.13;;;5.53;;
5833;SDS011;2943;48.012;10.968;2023-06-05T11:11:55;10.50;;;6.27;;
5833;SDS011;2943;48.012;10.968;2023-06-05T11:14:24;13.33;;;5.80;;
5833;SDS011;2943;48.012;10.968;2023-06-05T11:16:51;12.30;;;5.80;;
5833;SDS011;2943;48.012;10.968;2023-06-05T11:19:36;5.90;;;5.03;;
5833;SDS011;2943;48.012;10.968;2023-06-05T11:22:07;10.10;;;5.80;;
5833;SDS011;2943;48.012;10.968;2023-06-05T11:24:36;9.33;;;5.50;;
5833;SDS011;2943;48.012;10.968;2023-06-05T11:27:03;8.60;;;5.43;;
5833;SDS011;2943;48.012;10.968;2023-06-05T11:29:35;5.80;;;5.00;;
5833;SDS011;2943;48.012;10.968;2023-06-05T11:32:10;7.80;;;5.87;;
5833;SDS011;2943;48.012;10.968;2023-06-05T11:34:38;6.13;;;5.53;;
5833;SDS011;2943;48.012;10.968;2023-06-05T11:37:15;11.17;;;6.23;;
5833;SDS011;2943;48.012;10.968;2023-06-05T11:39:43;7.40;;;5.67;;
5833;SDS011;2943;48.012;10.968;2023-06-05T11:42:10;8.40;;;5.80;;
5833;SDS011;2943;48.012;10.968;2023-06-05T11:44:38;8.37;;;5.60;;
5833;SDS011;2943;48.012;10.968;2023-06-05T11:47:05;6.43;;;5.60;;
5833;SDS011;2943;48.012;10.968;2023-06-05T11:49:32;8.00;;;4.77;;
5833;SDS011;2943;48.012;10.968;2023-06-05T11:51:59;8.27;;;5.60;;
5833;SDS011;2943;48.012;10.968;2023-06-05T11:54:27;8.60;;;5.20;;
5833;SDS011;2943;48.012;10.968;2023-06-05T11:56:56;7.00;;;5.50;;
5833;SDS011;2943;48.012;10.968;2023-06-05T11:59:25;8.87;;;5.40;;
5833;SDS011;2943;48.012;10.968;2023-06-05T12:01:53;6.90;;;5.30;;
5833;SDS011;2943;48.012;10.968;2023-06-05T12:04:20;6.13;;;5.53;;
5833;SDS011;2943;48.012;10.968;2023-06-05T12:06:47;9.20;;;5.67;;
5833;SDS011;2943;48.012;10.968;2023-06-05T12:09:13;6.63;;;5.20;;
5833;SDS011;2943;48.012;10.968;2023-06-05T12:11:41;8.80;;;5.63;;
5833;SDS011;2943;48.012;10.968;2023-06-05T12:14:09;5.77;;;5.20;;
5833;SDS011;2943;48.012;10.968;2023-06-05T12:16:37;7.97;;;5.10;;
5833;SDS011;2943;48.012;10.968;2023-06-05T12:19:11;10.17;;;5.90;;
5833;SDS011;2943;48.012;10.968;2023-06-05T12:21:39;6.93;;;5.30;;
5833;SDS011;2943;48.012;10.968;2023-06-05T12:24:06;6.33;;;5.40;;
5833;SDS011;2943;48.012;10.968;2023-06-05T12:26:49;11.37;;;6.40;;
5833;SDS011;2943;48.012;10.968;2023-06-05T12:29:18;6.40;;;5.80;;
5833;SDS011;2943;48.012;10.968;2023-06-05T12:31:46;8.07;;;6.20;;
5833;SDS011;2943;48.012;10.968;2023-06-05T12:34:14;8.50;;;5.30;;
5833;SDS011;2943;48.012;10.968;2023-06-05T12:36:42;8.07;;;5.83;;
5833;SDS011;2943;48.012;10.968;2023-06-05T12:39:10;12.40;;;5.50;;
5833;SDS011;2943;48.012;10.968;2023-06-05T12:41:37;7.13;;;4.90;;
5833;SDS011;2943;48.012;10.968;2023-06-05T12:44:05;7.63;;;5.80;;
5833;SDS011;2943;48.012;10.968;2023-06-05T12:46:33;8.53;;;6.20;;
5833;SDS011;2943;48.012;10.968;2023-06-05T12:49:00;8.00;;;5.60;;
5833;SDS011;2943;48.012;10.968;2023-06-05T12:51:29;6.97;;;5.17;;
5833;SDS011;2943;48.012;10.968;2023-06-05T12:53:56;9.77;;;5.53;;
5833;SDS011;2943;48.012;10.968;2023-06-05T12:56:24;6.68;;;4.85;;
5833;SDS011;2943;48.012;10.968;2023-06-05T12:58:53;12.05;;;5.10;;
5833;SDS011;2943;48.012;10.968;2023-06-05T13:01:20;5.83;;;5.10;;
5833;SDS011;2943;48.012;10.968;2023-06-05T13:03:47;6.00;;;5.40;;
5833;SDS011;2943;48.012;10.968;2023-06-05T13:06:14;6.10;;;5.27;;
5833;SDS011;2943;48.012;10.968;2023-06-05T13:08:43;6.10;;;4.90;;
5833;SDS011;2943;48.012;10.968;2023-06-05T13:11:11;6.40;;;5.60;;
5833;SDS011;2943;48.012;10.968;2023-06-05T13:13:39;7.83;;;5.70;;
5833;SDS011;2943;48.012;10.968;2023-06-05T13:16:05;8.57;;;5.67;;
5833;SDS011;2943;48.012;10.968;2023-06-05T13:18:33;5.93;;;5.33;;
5833;SDS011;2943;48.012;10.968;2023-06-05T13:21:01;11.33;;;5.47;;
5833;SDS011;2943;48.012;10.968;2023-06-05T13:23:28;7.13;;;5.63;;
5833;SDS011;2943;48.012;10.968;2023-06-05T13:25:56;8.33;;;5.70;;
5833;SDS011;2943;48.012;10.968;2023-06-05T13:28:23;7.37;;;5.83;;
5833;SDS011;2943;48.012;10.968;2023-06-05T13:30:50;9.33;;;6.60;;
5833;SDS011;2943;48.012;10.968;2023-06-05T13:33:18;8.80;;;6.30;;
5833;SDS011;2943;48.012;10.968;2023-06-05T13:35:45;8.60;;;6.13;;
5833;SDS011;2943;48.012;10.968;2023-06-05T13:38:12;13.43;;;5.50;;
5833;SDS011;2943;48.012;10.968;2023-06-05T13:40:38;9.03;;;6.13;;
5833;SDS011;2943;48.012;10.968;2023-06-05T13:43:07;8.80;;;5.70;;
5833;SDS011;2943;48.012;10.968;2023-06-05T13:45:34;9.43;;;6.50;;
5833;SDS011;2943;48.012;10.968;2023-06-05T13:48:01;6.33;;;5.53;;
5833;SDS011;2943;48.012;10.968;2023-06-05T13:50:28;8.07;;;5.40;;
5833;SDS011;2943;48.012;10.968;2023-06-05T13:52:54;7.40;;;6.57;;
5833;SDS011;2943;48.012;10.968;2023-06-05T13:55:21;12.37;;;6.07;;
5833;SDS011;2943;48.012;10.968;2023-06-05T13:57:48;6.53;;;5.67;;
5833;SDS011;2943;48.012;10.968;2023-06-05T14:00:16;7.73;;;6.20;;
5833;SDS011;2943;48.012;10.968;2023-06-05T14:02:43;9.50;;;6.03;;
5833;SDS011;2943;48.012;10.968;2023-06-05T14:05:11;12.73;;;6.27;;
5833;SDS011;2943;48.012;10.968;2023-06-05T14:07:38;8.20;;;6.10;;
5833;SDS011;2943;48.012;10.968;2023-06-05T14:10:05;9.37;;;5.70;;
5833;SDS011;2943;48.012;10.968;2023-06-05T14:12:33;8.03;;;5.40;;
5833;SDS011;2943;48.012;10.968;2023-06-05T14:14:59;10.67;;;5.93;;
5833;SDS011;2943;48.012;10.968;2023-06-05T14:17:27;7.67;;;6.47;;
5833;SDS011;2943;48.012;10.968;2023-06-05T14:19:54;8.27;;;5.50;;
5833;SDS011;2943;48.012;10.968;2023-06-05T14:22:21;8.80;;;5.30;;
5833;SDS011;2943;48.012;10.968;2023-06-05T14:24:48;8.73;;;5.53;;
5833;SDS011;2943;48.012;10.968;2023-06-05T14:27:15;8.43;;;5.60;;
5833;SDS011;2943;48.012;10.968;2023-06-05T14:29:43;8.23;;;5.57;;
5833;SDS011;2943;48.012;10.968;2023-06-05T14:32:10;7.27;;;5.97;;
5833;SDS011;2943;48.012;10.968;2023-06-05T14:34:38;6.10;;;5.50;;
5833;SDS011;2943;48.012;10.968;2023-06-05T14:37:04;6.83;;;6.10;;
5833;SDS011;2943;48.012;10.968;2023-06-05T14:39:31;8.30;;;5.80;;
5833;SDS011;2943;48.012;10.968;2023-06-05T14:41:58;8.90;;;6.60;;
5833;SDS011;2943;48.012;10.968;2023-06-05T14:44:25;10.00;;;6.60;;
5833;SDS011;2943;48.012;10.968;2023-06-05T14:46:52;7.93;;;5.67;;
5833;SDS011;2943;48.012;10.968;2023-06-05T14:49:20;6.73;;;5.67;;
5833;SDS011;2943;48.012;10.968;2023-06-05T14:51:48;14.40;;;6.53;;
5833;SDS011;2943;48.012;10.968;2023-06-05T14:54:15;6.73;;;5.97;;
5833;SDS011;2943;48.012;10.968;2023-06-05T14:56:42;8.67;;;6.40;;
5833;SDS011;2943;48.012;10.968;2023-06-05T14:59:09;8.63;;;5.93;;
5833;SDS011;2943;48.012;10.968;2023-06-05T15:01:35;8.97;;;6.20;;
5833;SDS011;2943;48.012;10.968;2023-06-05T15:04:02;8.57;;;5.87;;
5833;SDS011;2943;48.012;10.968;2023-06-05T15:06:29;9.20;;;5.93;;
5833;SDS011;2943;48.012;10.968;2023-06-05T15:08:57;9.70;;;6.27;;